Terminal Aerodrome Forecast
Issued by NWS

Home | Current Version | Previous Version | Text Only | Print | Product List | Glossary On
Versions: 1 2 3 4 5 6 7 8 9 10 11 12 13 14
000
FTUS46 KSEW 202335
TAFHQM
TAF
KHQM 202335Z 2100/2124 27012G18KT P6SM SKC
     FM210400 28006KT P6SM SCT250
     FM210600 25006KT P6SM OVC011
     FM211200 36002KT 2SM BR OVC004
     FM211700 01003KT 4SM BR BKN008
     FM211900 24010KT P6SM SCT250=

USA.gov is the U.S. government's official web portal to all federal, state and local government web resources and services.